sensor_id;sensor_type;location;lat;lon;timestamp;pressure;altitude;pressure_sealevel;temperature;humidity
71126;BME280;58785;55.566;38.058;2022-10-16T00:01:25;101578.13;;;5.83;69.46
71126;BME280;58785;55.566;38.058;2022-10-16T00:03:52;101574.84;;;5.77;69.71
71126;BME280;58785;55.566;38.058;2022-10-16T00:06:19;101586.91;;;5.83;69.03
71126;BME280;58785;55.566;38.058;2022-10-16T00:08:46;101585.25;;;5.81;69.46
71126;BME280;58785;55.566;38.058;2022-10-16T00:11:21;101588.75;;;5.81;69.11
71126;BME280;58785;55.566;38.058;2022-10-16T00:13:48;101581.06;;;5.76;69.31
71126;BME280;58785;55.566;38.058;2022-10-16T00:16:15;101579.69;;;5.69;69.06
71126;BME280;58785;55.566;38.058;2022-10-16T00:18:41;101589.88;;;5.77;69.00
71126;BME280;58785;55.566;38.058;2022-10-16T00:21:13;101579.59;;;5.71;69.24
71126;BME280;58785;55.566;38.058;2022-10-16T00:24:03;101589.31;;;5.70;69.03
71126;BME280;58785;55.566;38.058;2022-10-16T00:26:31;101593.63;;;5.73;69.32
71126;BME280;58785;55.566;38.058;2022-10-16T00:28:57;101592.22;;;5.66;69.21
71126;BME280;58785;55.566;38.058;2022-10-16T00:31:23;101586.75;;;5.69;69.53
71126;BME280;58785;55.566;38.058;2022-10-16T00:33:49;101587.88;;;5.65;69.20
71126;BME280;58785;55.566;38.058;2022-10-16T00:36:18;101605.28;;;5.69;68.96
71126;BME280;58785;55.566;38.058;2022-10-16T00:38:45;101603.56;;;5.68;69.52
71126;BME280;58785;55.566;38.058;2022-10-16T00:41:13;101607.16;;;5.67;69.46
71126;BME280;58785;55.566;38.058;2022-10-16T00:43:42;101600.25;;;5.64;69.27
71126;BME280;58785;55.566;38.058;2022-10-16T00:46:22;101590.13;;;5.55;69.51
71126;BME280;58785;55.566;38.058;2022-10-16T00:49:09;101599.63;;;5.59;69.29
71126;BME280;58785;55.566;38.058;2022-10-16T00:51:41;101604.06;;;5.59;69.62
71126;BME280;58785;55.566;38.058;2022-10-16T00:54:14;101606.78;;;5.57;69.48
71126;BME280;58785;55.566;38.058;2022-10-16T00:56:41;101612.25;;;5.54;69.49
71126;BME280;58785;55.566;38.058;2022-10-16T00:59:14;101603.53;;;5.52;69.31
71126;BME280;58785;55.566;38.058;2022-10-16T01:01:40;101609.72;;;5.51;69.72
71126;BME280;58785;55.566;38.058;2022-10-16T01:04:06;101600.34;;;5.45;69.65
71126;BME280;58785;55.566;38.058;2022-10-16T01:06:43;101614.97;;;5.53;69.38
71126;BME280;58785;55.566;38.058;2022-10-16T01:12:08;101612.47;;;5.49;69.45
71126;BME280;58785;55.566;38.058;2022-10-16T01:14:56;101611.69;;;5.47;69.88
71126;BME280;58785;55.566;38.058;2022-10-16T01:17:37;101611.78;;;5.46;69.53
71126;BME280;58785;55.566;38.058;2022-10-16T01:23:27;101610.34;;;5.39;69.29
71126;BME280;58785;55.566;38.058;2022-10-16T01:28:29;101617.44;;;5.38;69.77
71126;BME280;58785;55.566;38.058;2022-10-16T01:30:59;101626.16;;;5.40;69.50
71126;BME280;58785;55.566;38.058;2022-10-16T01:33:32;101625.16;;;5.43;69.78
71126;BME280;58785;55.566;38.058;2022-10-16T01:36:08;101620.84;;;5.40;69.27
71126;BME280;58785;55.566;38.058;2022-10-16T01:38:37;101630.66;;;5.38;69.33
71126;BME280;58785;55.566;38.058;2022-10-16T01:41:10;101627.25;;;5.36;69.74
71126;BME280;58785;55.566;38.058;2022-10-16T01:43:40;101616.19;;;5.28;69.57
71126;BME280;58785;55.566;38.058;2022-10-16T01:46:13;101627.69;;;5.27;69.69
71126;BME280;58785;55.566;38.058;2022-10-16T01:48:41;101625.13;;;5.26;69.96
71126;BME280;58785;55.566;38.058;2022-10-16T01:51:10;101622.66;;;5.23;69.54
71126;BME280;58785;55.566;38.058;2022-10-16T01:53:37;101638.53;;;5.23;69.99
71126;BME280;58785;55.566;38.058;2022-10-16T01:56:07;101641.28;;;5.19;69.92
71126;BME280;58785;55.566;38.058;2022-10-16T01:58:37;101640.53;;;5.17;70.22
71126;BME280;58785;55.566;38.058;2022-10-16T02:01:07;101629.31;;;5.12;70.27
71126;BME280;58785;55.566;38.058;2022-10-16T02:03:37;101639.81;;;5.14;70.25
71126;BME280;58785;55.566;38.058;2022-10-16T02:06:06;101648.69;;;5.13;70.39
71126;BME280;58785;55.566;38.058;2022-10-16T02:08:32;101642.75;;;5.08;70.25
71126;BME280;58785;55.566;38.058;2022-10-16T02:10:59;101636.03;;;5.01;70.15
71126;BME280;58785;55.566;38.058;2022-10-16T02:13:31;101650.59;;;5.09;70.11
71126;BME280;58785;55.566;38.058;2022-10-16T02:15:58;101644.63;;;5.06;70.32
71126;BME280;58785;55.566;38.058;2022-10-16T02:18:24;101647.44;;;5.03;70.05
71126;BME280;58785;55.566;38.058;2022-10-16T02:21:01;101638.94;;;4.96;70.45
71126;BME280;58785;55.566;38.058;2022-10-16T02:23:50;101649.41;;;4.98;70.55
71126;BME280;58785;55.566;38.058;2022-10-16T02:26:27;101637.66;;;4.86;70.75
71126;BME280;58785;55.566;38.058;2022-10-16T02:28:59;101641.44;;;4.80;70.79
71126;BME280;58785;55.566;38.058;2022-10-16T02:31:28;101652.72;;;4.84;70.60
71126;BME280;58785;55.566;38.058;2022-10-16T02:33:58;101657.09;;;4.85;70.60
71126;BME280;58785;55.566;38.058;2022-10-16T02:36:25;101656.00;;;4.89;70.74
71126;BME280;58785;55.566;38.058;2022-10-16T02:38:52;101656.00;;;4.89;70.44
71126;BME280;58785;55.566;38.058;2022-10-16T02:41:20;101655.06;;;4.90;70.67
71126;BME280;58785;55.566;38.058;2022-10-16T02:43:46;101644.72;;;4.85;70.40
71126;BME280;58785;55.566;38.058;2022-10-16T02:46:12;101645.75;;;4.83;70.34
71126;BME280;58785;55.566;38.058;2022-10-16T02:48:37;101654.53;;;4.83;70.54
71126;BME280;58785;55.566;38.058;2022-10-16T02:51:04;101664.25;;;4.83;70.57
71126;BME280;58785;55.566;38.058;2022-10-16T02:53:30;101665.53;;;4.74;70.57
71126;BME280;58785;55.566;38.058;2022-10-16T02:55:55;101664.88;;;4.69;70.93
71126;BME280;58785;55.566;38.058;2022-10-16T02:58:21;101670.38;;;4.65;70.88
71126;BME280;58785;55.566;38.058;2022-10-16T03:00:46;101659.38;;;4.55;71.01
71126;BME280;58785;55.566;38.058;2022-10-16T03:03:12;101664.84;;;4.50;71.18
71126;BME280;58785;55.566;38.058;2022-10-16T03:05:37;101648.66;;;4.39;71.09
71126;BME280;58785;55.566;38.058;2022-10-16T03:08:03;101669.50;;;4.45;71.43
71126;BME280;58785;55.566;38.058;2022-10-16T03:10:28;101655.94;;;4.34;71.34
71126;BME280;58785;55.566;38.058;2022-10-16T03:12:54;101659.59;;;4.31;71.31
71126;BME280;58785;55.566;38.058;2022-10-16T03:15:19;101671.25;;;4.26;71.73
71126;BME280;58785;55.566;38.058;2022-10-16T03:17:45;101662.81;;;4.18;71.85
71126;BME280;58785;55.566;38.058;2022-10-16T03:20:10;101673.91;;;4.26;71.64
71126;BME280;58785;55.566;38.058;2022-10-16T03:22:36;101675.47;;;4.30;71.45
71126;BME280;58785;55.566;38.058;2022-10-16T03:25:02;101676.31;;;4.30;71.71
71126;BME280;58785;55.566;38.058;2022-10-16T03:27:29;101673.63;;;4.32;71.61
71126;BME280;58785;55.566;38.058;2022-10-16T03:29:55;101677.06;;;4.34;71.62
71126;BME280;58785;55.566;38.058;2022-10-16T03:32:21;101674.41;;;4.34;71.57
71126;BME280;58785;55.566;38.058;2022-10-16T03:34:47;101678.00;;;4.33;71.59
71126;BME280;58785;55.566;38.058;2022-10-16T03:37:12;101669.31;;;4.29;71.23
71126;BME280;58785;55.566;38.058;2022-10-16T03:39:38;101677.91;;;4.35;71.37
71126;BME280;58785;55.566;38.058;2022-10-16T03:42:04;101678.84;;;4.33;71.53
71126;BME280;58785;55.566;38.058;2022-10-16T03:44:29;101684.13;;;4.33;71.24
71126;BME280;58785;55.566;38.058;2022-10-16T03:46:55;101679.88;;;4.29;71.51
71126;BME280;58785;55.566;38.058;2022-10-16T03:49:20;101677.13;;;4.32;71.63
71126;BME280;58785;55.566;38.058;2022-10-16T03:51:46;101687.41;;;4.39;71.38
71126;BME280;58785;55.566;38.058;2022-10-16T03:54:11;101676.13;;;4.35;71.42
71126;BME280;58785;55.566;38.058;2022-10-16T03:56:38;101680.72;;;4.31;71.59
71126;BME280;58785;55.566;38.058;2022-10-16T03:59:03;101691.03;;;4.36;71.49
71126;BME280;58785;55.566;38.058;2022-10-16T04:01:29;101674.84;;;4.25;71.22
71126;BME280;58785;55.566;38.058;2022-10-16T04:03:54;101677.47;;;4.25;71.81
71126;BME280;58785;55.566;38.058;2022-10-16T04:06:20;101687.03;;;4.27;71.58
71126;BME280;58785;55.566;38.058;2022-10-16T04:08:45;101674.91;;;4.23;71.27
71126;BME280;58785;55.566;38.058;2022-10-16T04:11:11;101682.59;;;4.28;71.59
71126;BME280;58785;55.566;38.058;2022-10-16T04:13:36;101690.25;;;4.34;71.97
71126;BME280;58785;55.566;38.058;2022-10-16T04:16:02;101687.63;;;4.34;71.72
71126;BME280;58785;55.566;38.058;2022-10-16T04:18:28;101688.47;;;4.35;71.45
71126;BME280;58785;55.566;38.058;2022-10-16T04:20:54;101691.72;;;4.41;71.59
71126;BME280;58785;55.566;38.058;2022-10-16T04:23:20;101692.56;;;4.42;71.51
71126;BME280;58785;55.566;38.058;2022-10-16T04:25:46;101690.13;;;4.37;71.34
71126;BME280;58785;55.566;38.058;2022-10-16T04:28:11;101696.91;;;4.43;71.45
71126;BME280;58785;55.566;38.058;2022-10-16T04:30:38;101699.41;;;4.46;71.12
71126;BME280;58785;55.566;38.058;2022-10-16T04:33:04;101700.97;;;4.50;71.24
71126;BME280;58785;55.566;38.058;2022-10-16T04:35:30;101698.22;;;4.53;71.33
71126;BME280;58785;55.566;38.058;2022-10-16T04:37:57;101704.06;;;4.59;71.18
71126;BME280;58785;55.566;38.058;2022-10-16T04:40:23;101688.22;;;4.59;70.85
71126;BME280;58785;55.566;38.058;2022-10-16T04:42:49;101697.50;;;4.68;70.92
71126;BME280;58785;55.566;38.058;2022-10-16T04:45:15;101686.00;;;4.69;71.01
71126;BME280;58785;55.566;38.058;2022-10-16T04:47:41;101692.03;;;4.73;70.54
71126;BME280;58785;55.566;38.058;2022-10-16T04:50:07;101702.22;;;4.80;70.82
71126;BME280;58785;55.566;38.058;2022-10-16T04:52:32;101707.91;;;4.90;70.58
71126;BME280;58785;55.566;38.058;2022-10-16T04:54:58;101712.06;;;4.96;70.41
71126;BME280;58785;55.566;38.058;2022-10-16T04:57:27;101700.56;;;4.97;70.65
71126;BME280;58785;55.566;38.058;2022-10-16T04:59:53;101706.28;;;5.06;70.52
71126;BME280;58785;55.566;38.058;2022-10-16T05:02:18;101710.34;;;5.13;70.23
71126;BME280;58785;55.566;38.058;2022-10-16T05:04:44;101708.56;;;5.14;69.93
71126;BME280;58785;55.566;38.058;2022-10-16T05:07:10;101708.91;;;5.25;69.77
71126;BME280;58785;55.566;38.058;2022-10-16T05:09:36;101703.53;;;5.27;69.76
71126;BME280;58785;55.566;38.058;2022-10-16T05:12:01;101699.75;;;5.32;69.80
71126;BME280;58785;55.566;38.058;2022-10-16T05:14:29;101698.59;;;5.38;69.92
71126;BME280;58785;55.566;38.058;2022-10-16T05:16:54;101697.44;;;5.43;69.62
71126;BME280;58785;55.566;38.058;2022-10-16T05:19:20;101706.84;;;5.49;69.80
71126;BME280;58785;55.566;38.058;2022-10-16T05:21:45;101704.91;;;5.53;69.45
71126;BME280;58785;55.566;38.058;2022-10-16T05:24:11;101704.47;;;5.62;69.21
71126;BME280;58785;55.566;38.058;2022-10-16T05:26:37;101700.81;;;5.64;68.94
71126;BME280;58785;55.566;38.058;2022-10-16T05:29:03;101712.84;;;5.70;69.35
71126;BME280;58785;55.566;38.058;2022-10-16T05:31:28;101705.84;;;5.69;69.25
71126;BME280;58785;55.566;38.058;2022-10-16T05:33:58;101713.34;;;5.78;69.06
71126;BME280;58785;55.566;38.058;2022-10-16T05:36:24;101714.56;;;5.88;69.28
71126;BME280;58785;55.566;38.058;2022-10-16T05:38:50;101710.72;;;5.95;68.25
71126;BME280;58785;55.566;38.058;2022-10-16T05:41:16;101709.69;;;5.98;68.25
71126;BME280;58785;55.566;38.058;2022-10-16T05:43:47;101720.50;;;6.11;68.47
71126;BME280;58785;55.566;38.058;2022-10-16T05:46:13;101725.91;;;6.09;68.08
71126;BME280;58785;55.566;38.058;2022-10-16T05:48:39;101726.44;;;6.16;68.32
71126;BME280;58785;55.566;38.058;2022-10-16T05:51:06;101735.72;;;6.24;68.41
71126;BME280;58785;55.566;38.058;2022-10-16T05:53:34;101731.88;;;6.30;67.98
71126;BME280;58785;55.566;38.058;2022-10-16T05:56:00;101731.56;;;6.36;67.97
71126;BME280;58785;55.566;38.058;2022-10-16T05:58:31;101729.47;;;6.43;67.89
71126;BME280;58785;55.566;38.058;2022-10-16T06:01:00;101737.78;;;6.52;67.10
71126;BME280;58785;55.566;38.058;2022-10-16T06:03:26;101736.47;;;6.59;67.43
71126;BME280;58785;55.566;38.058;2022-10-16T06:05:52;101745.84;;;6.67;67.27
71126;BME280;58785;55.566;38.058;2022-10-16T06:08:20;101744.56;;;6.74;66.95
71126;BME280;58785;55.566;38.058;2022-10-16T06:10:46;101742.44;;;6.80;66.89
71126;BME280;58785;55.566;38.058;2022-10-16T06:13:13;101736.88;;;6.85;66.61
71126;BME280;58785;55.566;38.058;2022-10-16T06:15:41;101748.72;;;6.95;67.26
71126;BME280;58785;55.566;38.058;2022-10-16T06:18:08;101756.16;;;7.04;66.89
71126;BME280;58785;55.566;38.058;2022-10-16T06:20:35;101740.91;;;7.08;66.20
71126;BME280;58785;55.566;38.058;2022-10-16T06:23:00;101743.25;;;7.14;66.51
71126;BME280;58785;55.566;38.058;2022-10-16T06:25:26;101738.78;;;7.30;66.76
71126;BME280;58785;55.566;38.058;2022-10-16T06:27:51;101728.78;;;7.35;66.59
71126;BME280;58785;55.566;38.058;2022-10-16T06:30:17;101743.41;;;7.42;65.69
71126;BME280;58785;55.566;38.058;2022-10-16T06:32:43;101740.38;;;7.48;65.94
71126;BME280;58785;55.566;38.058;2022-10-16T06:35:08;101729.53;;;7.53;66.20
71126;BME280;58785;55.566;38.058;2022-10-16T06:37:33;101742.84;;;7.67;65.50
71126;BME280;58785;55.566;38.058;2022-10-16T06:39:59;101739.66;;;7.76;65.36
71126;BME280;58785;55.566;38.058;2022-10-16T06:42:25;101749.31;;;7.93;65.21
71126;BME280;58785;55.566;38.058;2022-10-16T06:44:51;101756.66;;;8.04;65.05
71126;BME280;58785;55.566;38.058;2022-10-16T06:47:16;101750.84;;;8.12;64.84
71126;BME280;58785;55.566;38.058;2022-10-16T06:49:42;101740.06;;;8.15;65.22
71126;BME280;58785;55.566;38.058;2022-10-16T06:52:07;101746.44;;;8.26;64.94
71126;BME280;58785;55.566;38.058;2022-10-16T06:54:33;101750.28;;;8.37;64.68
71126;BME280;58785;55.566;38.058;2022-10-16T06:56:58;101747.91;;;8.46;64.21
71126;BME280;58785;55.566;38.058;2022-10-16T06:59:25;101757.91;;;8.57;64.20
71126;BME280;58785;55.566;38.058;2022-10-16T07:01:51;101740.63;;;8.64;63.81
71126;BME280;58785;55.566;38.058;2022-10-16T07:04:16;101742.16;;;8.82;63.67
71126;BME280;58785;55.566;38.058;2022-10-16T07:06:42;101750.00;;;8.98;63.55
71126;BME280;58785;55.566;38.058;2022-10-16T07:09:09;101756.25;;;9.11;63.26
71126;BME280;58785;55.566;38.058;2022-10-16T07:11:37;101758.03;;;9.25;63.17
71126;BME280;58785;55.566;38.058;2022-10-16T07:14:08;101752.13;;;9.34;63.02
71126;BME280;58785;55.566;38.058;2022-10-16T07:16:37;101758.34;;;9.47;62.46
71126;BME280;58785;55.566;38.058;2022-10-16T07:19:03;101761.84;;;9.62;62.84
71126;BME280;58785;55.566;38.058;2022-10-16T07:21:31;101759.09;;;9.76;62.51
71126;BME280;58785;55.566;38.058;2022-10-16T07:24:00;101752.53;;;9.82;62.24
71126;BME280;58785;55.566;38.058;2022-10-16T07:26:27;101761.94;;;10.00;61.97
71126;BME280;58785;55.566;38.058;2022-10-16T07:28:53;101762.50;;;10.18;61.67
71126;BME280;58785;55.566;38.058;2022-10-16T07:31:19;101770.34;;;10.34;61.52
71126;BME280;58785;55.566;38.058;2022-10-16T07:33:46;101770.69;;;10.42;61.51
71126;BME280;58785;55.566;38.058;2022-10-16T07:36:15;101772.91;;;10.48;61.42
71126;BME280;58785;55.566;38.058;2022-10-16T07:38:41;101765.97;;;10.58;60.41
71126;BME280;58785;55.566;38.058;2022-10-16T07:41:10;101771.22;;;10.73;61.20
71126;BME280;58785;55.566;38.058;2022-10-16T07:43:36;101765.75;;;10.87;60.37
71126;BME280;58785;55.566;38.058;2022-10-16T07:46:01;101772.25;;;10.96;60.07
71126;BME280;58785;55.566;38.058;2022-10-16T07:48:29;101757.28;;;11.06;59.88
71126;BME280;58785;55.566;38.058;2022-10-16T07:50:59;101764.75;;;11.13;59.64
71126;BME280;58785;55.566;38.058;2022-10-16T07:53:26;101768.41;;;11.12;60.21
71126;BME280;58785;55.566;38.058;2022-10-16T07:55:52;101761.66;;;11.07;60.05
71126;BME280;58785;55.566;38.058;2022-10-16T07:58:17;101763.47;;;11.06;59.59
71126;BME280;58785;55.566;38.058;2022-10-16T08:00:43;101764.00;;;11.11;59.60
71126;BME280;58785;55.566;38.058;2022-10-16T08:03:08;101752.88;;;11.17;59.91
71126;BME280;58785;55.566;38.058;2022-10-16T08:05:34;101755.19;;;11.22;60.21
71126;BME280;58785;55.566;38.058;2022-10-16T08:08:01;101758.81;;;11.34;59.20
71126;BME280;58785;55.566;38.058;2022-10-16T08:10:28;101761.75;;;11.42;59.73
71126;BME280;58785;55.566;38.058;2022-10-16T08:12:53;101773.09;;;11.45;59.44
71126;BME280;58785;55.566;38.058;2022-10-16T08:15:19;101753.66;;;11.43;58.54
71126;BME280;58785;55.566;38.058;2022-10-16T08:17:55;101753.66;;;11.43;59.57
71126;BME280;58785;55.566;38.058;2022-10-16T08:20:20;101751.00;;;11.43;59.09
71126;BME280;58785;55.566;38.058;2022-10-16T08:22:46;101764.78;;;11.61;58.77
71126;BME280;58785;55.566;38.058;2022-10-16T08:25:11;101750.38;;;11.64;59.20
71126;BME280;58785;55.566;38.058;2022-10-16T08:27:37;101752.44;;;11.71;59.03
71126;BME280;58785;55.566;38.058;2022-10-16T08:30:03;101750.41;;;11.75;58.91
71126;BME280;58785;55.566;38.058;2022-10-16T08:32:29;101746.91;;;11.74;58.44
71126;BME280;58785;55.566;38.058;2022-10-16T08:34:54;101755.44;;;11.79;59.06
71126;BME280;58785;55.566;38.058;2022-10-16T08:37:20;101759.16;;;11.77;58.47
71126;BME280;58785;55.566;38.058;2022-10-16T08:39:45;101752.56;;;11.83;58.89
71126;BME280;58785;55.566;38.058;2022-10-16T08:42:16;101754.75;;;11.89;58.44
71126;BME280;58785;55.566;38.058;2022-10-16T08:45:01;101748.06;;;11.83;58.03
71126;BME280;58785;55.566;38.058;2022-10-16T08:47:48;101743.88;;;11.79;58.22
71126;BME280;58785;55.566;38.058;2022-10-16T08:50:23;101750.63;;;11.85;58.08
71126;BME280;58785;55.566;38.058;2022-10-16T08:55:51;101735.22;;;11.99;57.53
71126;BME280;58785;55.566;38.058;2022-10-16T08:58:27;101731.22;;;11.94;57.10
71126;BME280;58785;55.566;38.058;2022-10-16T09:00:59;101733.66;;;11.97;57.55
71126;BME280;58785;55.566;38.058;2022-10-16T09:11:55;101737.09;;;12.21;56.01
71126;BME280;58785;55.566;38.058;2022-10-16T09:20:31;101738.50;;;12.49;56.12
71126;BME280;58785;55.566;38.058;2022-10-16T09:25:31;101734.38;;;12.68;55.71
71126;BME280;58785;55.566;38.058;2022-10-16T09:27:58;101734.63;;;12.64;55.51
71126;BME280;58785;55.566;38.058;2022-10-16T09:30:26;101734.63;;;12.64;55.08
71126;BME280;58785;55.566;38.058;2022-10-16T09:32:54;101730.00;;;12.66;54.94
71126;BME280;58785;55.566;38.058;2022-10-16T09:35:22;101733.16;;;12.72;55.05
71126;BME280;58785;55.566;38.058;2022-10-16T09:37:54;101737.44;;;12.74;54.82
71126;BME280;58785;55.566;38.058;2022-10-16T09:40:34;101730.13;;;12.76;54.48
71126;BME280;58785;55.566;38.058;2022-10-16T09:43:25;101724.91;;;12.75;54.27
71126;BME280;58785;55.566;38.058;2022-10-16T09:48:43;101722.09;;;12.76;54.52
71126;BME280;58785;55.566;38.058;2022-10-16T09:51:21;101716.75;;;12.76;54.10
71126;BME280;58785;55.566;38.058;2022-10-16T09:53:48;101724.91;;;12.86;54.30
71126;BME280;58785;55.566;38.058;2022-10-16T09:56:29;101723.19;;;12.96;54.30
71126;BME280;58785;55.566;38.058;2022-10-16T09:58:58;101720.97;;;13.01;53.86
71126;BME280;58785;55.566;38.058;2022-10-16T10:01:30;101724.75;;;12.99;53.26
71126;BME280;58785;55.566;38.058;2022-10-16T10:03:57;101717.47;;;12.89;53.29
71126;BME280;58785;55.566;38.058;2022-10-16T10:06:36;101730.00;;;12.89;53.00
71126;BME280;58785;55.566;38.058;2022-10-16T10:14:36;101727.44;;;12.87;53.32
71126;BME280;58785;55.566;38.058;2022-10-16T10:19:38;101728.03;;;12.91;52.95
71126;BME280;58785;55.566;38.058;2022-10-16T10:28:03;101718.69;;;12.97;52.32
71126;BME280;58785;55.566;38.058;2022-10-16T10:35:45;101710.41;;;12.88;52.45
71126;BME280;58785;55.566;38.058;2022-10-16T10:45:46;101708.22;;;12.93;52.19
71126;BME280;58785;55.566;38.058;2022-10-16T10:54:11;101698.38;;;12.94;52.02
71126;BME280;58785;55.566;38.058;2022-10-16T10:59:00;101711.09;;;13.02;52.27
71126;BME280;58785;55.566;38.058;2022-10-16T11:07:28;101698.94;;;12.98;52.25
71126;BME280;58785;55.566;38.058;2022-10-16T11:10:29;101700.66;;;12.99;52.21
71126;BME280;58785;55.566;38.058;2022-10-16T11:13:15;101698.94;;;12.98;52.11
71126;BME280;58785;55.566;38.058;2022-10-16T11:15:47;101697.13;;;12.98;52.30
71126;BME280;58785;55.566;38.058;2022-10-16T11:18:21;101701.50;;;12.99;52.45
71126;BME280;58785;55.566;38.058;2022-10-16T11:20:53;101694.19;;;13.01;52.39
71126;BME280;58785;55.566;38.058;2022-10-16T11:23:26;101696.16;;;12.99;52.49
71126;BME280;58785;55.566;38.058;2022-10-16T11:25:56;101673.03;;;12.98;52.38
71126;BME280;58785;55.566;38.058;2022-10-16T11:28:32;101684.31;;;13.02;52.20
71126;BME280;58785;55.566;38.058;2022-10-16T11:34:08;101687.25;;;12.99;51.90
71126;BME280;58785;55.566;38.058;2022-10-16T11:36:49;101682.41;;;12.92;52.29
71126;BME280;58785;55.566;38.058;2022-10-16T11:39:24;101681.94;;;12.87;51.98
71126;BME280;58785;55.566;38.058;2022-10-16T11:47:57;101677.69;;;12.74;52.26
71126;BME280;58785;55.566;38.058;2022-10-16T11:50:37;101679.63;;;12.72;52.40
71126;BME280;58785;55.566;38.058;2022-10-16T11:56:01;101673.06;;;12.64;52.40
71126;BME280;58785;55.566;38.058;2022-10-16T11:58:59;101676.59;;;12.65;52.14
71126;BME280;58785;55.566;38.058;2022-10-16T12:01:38;101672.09;;;12.65;52.50
71126;BME280;58785;55.566;38.058;2022-10-16T12:07:14;101659.31;;;12.58;52.00
71126;BME280;58785;55.566;38.058;2022-10-16T12:09:41;101670.75;;;12.60;52.13
71126;BME280;58785;55.566;38.058;2022-10-16T12:15:19;101659.19;;;12.48;51.88
71126;BME280;58785;55.566;38.058;2022-10-16T12:17:45;101664.56;;;12.48;52.59
71126;BME280;58785;55.566;38.058;2022-10-16T12:22:36;101658.72;;;12.43;52.49
71126;BME280;58785;55.566;38.058;2022-10-16T12:25:20;101650.19;;;12.38;52.10
71126;BME280;58785;55.566;38.058;2022-10-16T12:28:38;101657.38;;;12.37;52.78
71126;BME280;58785;55.566;38.058;2022-10-16T12:30:41;101656.66;;;12.35;52.53
71126;BME280;58785;55.566;38.058;2022-10-16T12:33:37;101661.16;;;12.35;52.39
71126;BME280;58785;55.566;38.058;2022-10-16T12:36:15;101642.44;;;12.24;52.69
71126;BME280;58785;55.566;38.058;2022-10-16T12:38:51;101652.88;;;12.27;52.87
71126;BME280;58785;55.566;38.058;2022-10-16T12:41:32;101658.09;;;12.28;52.75
71126;BME280;58785;55.566;38.058;2022-10-16T12:44:00;101662.72;;;12.26;53.29
71126;BME280;58785;55.566;38.058;2022-10-16T12:49:06;101654.09;;;12.23;52.65
71126;BME280;58785;55.566;38.058;2022-10-16T12:54:31;101636.31;;;12.11;52.89
71126;BME280;58785;55.566;38.058;2022-10-16T13:22:39;101655.31;;;11.72;54.23
71126;BME280;58785;55.566;38.058;2022-10-16T13:30:28;101646.00;;;11.54;54.27
71126;BME280;58785;55.566;38.058;2022-10-16T13:33:10;101644.88;;;11.45;55.30
71126;BME280;58785;55.566;38.058;2022-10-16T13:35:50;101640.97;;;11.38;54.85
71126;BME280;58785;55.566;38.058;2022-10-16T13:38:20;101646.41;;;11.37;55.49
71126;BME280;58785;55.566;38.058;2022-10-16T13:41:00;101644.31;;;11.29;54.93
71126;BME280;58785;55.566;38.058;2022-10-16T13:43:55;101645.63;;;11.23;55.21
71126;BME280;58785;55.566;38.058;2022-10-16T13:46:23;101639.47;;;11.10;55.76
71126;BME280;58785;55.566;38.058;2022-10-16T13:49:16;101654.66;;;11.10;55.25
71126;BME280;58785;55.566;38.058;2022-10-16T13:51:57;101656.09;;;11.03;55.45
71126;BME280;58785;55.566;38.058;2022-10-16T13:54:25;101651.19;;;10.97;55.80
71126;BME280;58785;55.566;38.058;2022-10-16T13:56:51;101649.06;;;10.89;55.91
71126;BME280;58785;55.566;38.058;2022-10-16T13:59:27;101644.28;;;10.81;56.17
71126;BME280;58785;55.566;38.058;2022-10-16T14:01:55;101649.13;;;10.76;55.66
71126;BME280;58785;55.566;38.058;2022-10-16T14:04:23;101637.41;;;10.66;56.13
71126;BME280;58785;55.566;38.058;2022-10-16T14:06:51;101652.03;;;10.60;56.72
71126;BME280;58785;55.566;38.058;2022-10-16T14:09:25;101649.06;;;10.52;57.18
71126;BME280;58785;55.566;38.058;2022-10-16T14:11:55;101655.13;;;10.42;57.00
71126;BME280;58785;55.566;38.058;2022-10-16T14:14:22;101652.81;;;10.37;57.30
71126;BME280;58785;55.566;38.058;2022-10-16T14:16:48;101651.63;;;10.28;56.75
71126;BME280;58785;55.566;38.058;2022-10-16T14:19:21;101654.66;;;10.24;57.25
71126;BME280;58785;55.566;38.058;2022-10-16T14:21:49;101645.56;;;10.14;57.67
71126;BME280;58785;55.566;38.058;2022-10-16T14:24:41;101644.69;;;10.00;58.25
71126;BME280;58785;55.566;38.058;2022-10-16T14:30:15;101651.38;;;9.80;58.26
71126;BME280;58785;55.566;38.058;2022-10-16T14:32:42;101636.34;;;9.67;58.44
71126;BME280;58785;55.566;38.058;2022-10-16T14:35:28;101642.41;;;9.56;58.71
71126;BME280;58785;55.566;38.058;2022-10-16T14:37:55;101645.47;;;9.50;58.98
71126;BME280;58785;55.566;38.058;2022-10-16T14:40:28;101649.50;;;9.43;58.61
71126;BME280;58785;55.566;38.058;2022-10-16T14:42:55;101655.88;;;9.40;59.13
71126;BME280;58785;55.566;38.058;2022-10-16T14:45:27;101654.88;;;9.29;59.43
71126;BME280;58785;55.566;38.058;2022-10-16T14:47:58;101663.28;;;9.23;59.71
71126;BME280;58785;55.566;38.058;2022-10-16T14:50:25;101667.41;;;9.14;60.01
71126;BME280;58785;55.566;38.058;2022-10-16T14:52:51;101663.41;;;9.07;60.23
71126;BME280;58785;55.566;38.058;2022-10-16T14:55:17;101661.34;;;8.98;60.25
71126;BME280;58785;55.566;38.058;2022-10-16T14:57:44;101661.72;;;8.91;60.67
71126;BME280;58785;55.566;38.058;2022-10-16T15:00:20;101664.16;;;8.82;60.32
71126;BME280;58785;55.566;38.058;2022-10-16T15:02:48;101659.22;;;8.76;60.83
71126;BME280;58785;55.566;38.058;2022-10-16T15:05:23;101663.00;;;8.72;61.34
71126;BME280;58785;55.566;38.058;2022-10-16T15:07:50;101663.41;;;8.66;61.32
71126;BME280;58785;55.566;38.058;2022-10-16T15:10:17;101665.50;;;8.60;60.80